Time;durP1;ratioP1;P1;durP2;ratioP2;P2;SDS_P1;SDS_P2;PMS_P1;PMS_P2;Temp;Humidity;BMP_temperature;BMP_pressure;BME280_temperature;BME280_humidity;BME280_pressure;Samples;Min_cycle;Max_cycle;Signal;HPM_P1;HPM_P2
2022/02/14 13:22:47;;;;;;;87.15;59.45;;;358.50;2329.60;;;;;;5093350;27;1509570;-70
2022/02/14 13:25:24;;;;;;;58.03;38.45;;;333.60;2329.60;;;;;;5109515;27;20477;-70
2022/02/14 13:27:52;;;;;;;44.10;31.52;;;333.60;2329.60;;;;;;5110385;28;20103;-70
2022/02/14 13:30:20;;;;;;;51.38;35.30;;;333.60;2329.60;;;;;;5110236;28;20020;-70
2022/02/14 13:32:47;;;;;;;30.05;20.92;;;;;;;;;;5110446;28;20024;-69
2022/02/14 13:35:14;;;;;;;52.38;33.35;;;;;;;;;;5110055;28;20031;-69
2022/02/14 13:37:47;;;;;;;65.82;41.88;;;;;;;;;;5110293;28;20020;-67
2022/02/14 13:40:29;;;;;;;42.80;29.17;;;;;;;;;;5118698;28;20023;-71
2022/02/14 13:42:58;;;;;;;68.00;46.70;;;;;;;;;;5113622;28;20438;-71
2022/02/14 13:45:25;;;;;;;50.33;33.35;;;;;;;;;;5125099;28;20028;-68
2022/02/14 13:48:11;;;;;;;42.30;29.42;;;;;;;;;;5131871;28;20110;-65
2022/02/14 13:50:37;;;;;;;38.60;25.63;;;;;;;;;;5131435;28;20039;-70
2022/02/14 13:53:03;;;;;;;26.33;19.30;;;;;;;;;;5130514;28;20042;-67
2022/02/14 13:55:31;;;;;;;33.67;24.40;;;358.40;2329.60;;;;;;5112802;28;20031;-68
2022/02/14 13:57:57;;;;;;;29.83;20.55;;;358.50;2329.60;;;;;;5109700;28;20019;-66
2022/02/14 14:00:36;;;;;;;36.35;23.58;;;358.40;2329.60;;;;;;5109727;28;20020;-68
2022/02/14 14:03:08;;;;;;;26.30;18.60;;;358.40;2329.60;;;;;;5110028;28;20028;-68
2022/02/14 14:05:44;;;;;;;21.02;15.25;;;333.70;2329.60;;;;;;5109559;28;20023;-66
2022/02/14 14:08:12;;;;;;;25.20;16.95;;;358.40;2329.60;;;;;;5107755;28;20077;-66
2022/02/14 14:10:43;;;;;;;28.67;20.00;;;358.40;2329.60;;;;;;5109465;28;20466;-69
2022/02/14 14:13:10;;;;;;;40.58;28.15;;;358.40;2329.60;;;;;;5112939;28;20036;-69
2022/02/14 14:15:42;;;;;;;42.50;31.75;;;333.70;2329.60;;;;;;5109650;28;20086;-68
2022/02/14 14:18:08;;;;;;;140.70;87.53;;;358.40;2329.60;;;;;;5109667;28;20057;-67
2022/02/14 14:20:35;;;;;;;53.85;35.67;;;;;;;;;;5113396;28;20059;-70
2022/02/14 14:23:01;;;;;;;113.57;82.30;;;;;;;;;;5129799;28;20087;-68
2022/02/14 14:25:29;;;;;;;61.58;44.58;;;;;;;;;;5129877;28;20023;-69
2022/02/14 14:27:56;;;;;;;53.97;41.42;;;;;;;;;;5129657;27;20050;-70
2022/02/14 14:30:22;;;;;;;63.00;43.17;;;;;;;;;;5129964;28;20023;-67
2022/02/14 14:32:49;;;;;;;101.97;74.68;;;;;;;;;;5123551;28;20028;-68
2022/02/14 14:35:16;;;;;;;232.75;191.50;;;;;;;;;;5116022;28;20026;-67
2022/02/14 14:37:46;;;;;;;228.45;133.10;;;;;;;;;;5118275;28;20023;-69
2022/02/14 14:40:15;;;;;;;219.73;121.88;;;;;;;;;;5120107;28;20032;-64
2022/02/14 14:42:43;;;;;;;112.78;77.68;;;;;;;;;;5032760;28;20033;-66
2022/02/14 14:45:23;;;;;;;226.98;100.68;;;;;;;;;;4940843;28;20475;-69
2022/02/14 14:47:53;;;;;;;;;;;;;;;;;;4980894;28;20040;-66
2022/02/14 14:50:22;;;;;;;80.63;50.60;;;;;;;;;;5055213;28;19904;-66
2022/02/14 14:52:49;;;;;;;57.08;41.10;;;;;;;;;;5054999;28;20031;-73
2022/02/14 14:55:15;;;;;;;48.13;33.92;;;;;;;;;;5025521;28;20539;-69
2022/02/14 14:57:42;;;;;;;78.75;58.10;;;;;;;;;;5015051;28;20029;-72
2022/02/14 15:00:09;;;;;;;105.53;77.18;;;;;;;;;;5014491;28;20036;-72
2022/02/14 15:02:35;;;;;;;101.30;70.72;;;;;;;;;;5015388;28;20030;-72
2022/02/14 15:05:01;;;;;;;120.25;85.20;;;;;;;;;;5015272;28;20068;-72
2022/02/14 15:07:28;;;;;;;99.88;69.78;;;;;;;;;;5015110;28;20029;-68
2022/02/14 15:09:54;;;;;;;103.15;72.95;;;;;;;;;;5014861;28;20113;-72
2022/02/14 15:12:20;;;;;;;71.50;52.13;;;;;;;;;;5013859;28;20026;-70
2022/02/14 15:14:47;;;;;;;63.13;43.85;;;;;;;;;;5015080;28;20025;-69
2022/02/14 15:17:13;;;;;;;64.72;45.30;;;;;;;;;;5014976;28;20495;-67
2022/02/14 15:19:40;;;;;;;72.93;53.50;;;;;;;;;;5014780;28;20030;-69
2022/02/14 15:22:07;;;;;;;87.65;61.63;;;;;;;;;;5014692;28;20050;-67
2022/02/14 15:24:33;;;;;;;128.43;93.68;;;;;;;;;;5014726;28;20036;-68
2022/02/14 15:26:59;;;;;;;110.50;78.38;;;;;;;;;;5014859;28;20113;-68
2022/02/14 15:29:25;;;;;;;117.70;88.00;;;358.50;2329.60;;;;;;5015247;28;20399;-69
2022/02/14 15:31:53;;;;;;;125.63;87.75;;;358.50;2329.60;;;;;;5019664;28;20108;-66
2022/02/14 15:34:20;;;;;;;126.80;90.90;;;333.70;2329.60;;;;;;5014245;28;20387;-65
2022/02/14 15:36:47;;;;;;;133.05;98.47;;;;;;;;;;5014617;28;20034;-68
2022/02/14 15:39:14;;;;;;;144.65;112.35;;;333.60;2329.60;;;;;;5014731;28;20029;-68
2022/02/14 15:41:41;;;;;;;168.10;135.80;;;333.50;2329.60;;;;;;5014613;28;20092;-70
2022/02/14 15:44:07;;;;;;;124.70;95.60;;;333.50;2329.60;;;;;;5013595;28;20022;-66
2022/02/14 15:46:33;;;;;;;101.80;76.03;;;333.60;2329.60;;;;;;5014301;28;20080;-67
2022/02/14 15:48:59;;;;;;;65.57;46.13;;;333.60;2329.60;;;;;;5014523;28;20026;-67
2022/02/14 15:51:25;;;;;;;44.72;27.55;;;333.60;2329.60;;;;;;5014197;28;20494;-68
2022/02/14 15:53:51;;;;;;;29.60;19.08;;;333.60;2329.60;;;;;;5024241;28;20159;-65
2022/02/14 15:56:18;;;;;;;33.55;20.33;;;333.40;2278.40;;;;;;5023108;28;20029;-69
2022/02/14 15:58:43;;;;;;;23.20;14.60;;;333.40;2201.60;;;;;;5033971;28;20488;-70
2022/02/14 16:01:09;;;;;;;21.75;14.68;;;333.30;2176.00;;;;;;5026302;28;20048;-68
2022/02/14 16:03:36;;;;;;;20.05;12.98;;;333.20;2150.40;;;;;;5029379;28;20048;-69
2022/02/14 16:06:03;;;;;;;16.27;10.40;;;333.20;2150.40;;;;;;5035880;28;20472;-67
2022/02/14 16:08:29;;;;;;;18.65;12.13;;;333.20;2124.80;;;;;;5049015;28;20538;-70
2022/02/14 16:10:56;;;;;;;24.83;13.63;;;333.10;2124.80;;;;;;5034006;28;20053;-63
2022/02/14 16:13:23;;;;;;;36.30;20.10;;;333.10;2073.60;;;;;;5033775;28;20026;-70
2022/02/14 16:15:49;;;;;;;31.13;18.27;;;333.00;2099.20;;;;;;5033469;28;20112;-69
2022/02/14 16:18:15;;;;;;;39.90;25.83;;;333.00;2099.20;;;;;;5033680;28;20017;-70
2022/02/14 16:20:42;;;;;;;43.25;26.55;;;333.00;2099.20;;;;;;5033360;28;20083;-67
2022/02/14 16:23:08;;;;;;;44.22;27.73;;;333.00;2099.20;;;;;;5033617;28;20026;-70
2022/02/14 16:25:35;;;;;;;50.90;31.58;;;333.00;2099.20;;;;;;5033086;28;20488;-65
2022/02/14 16:28:02;;;;;;;59.30;34.78;;;333.10;2124.80;;;;;;5033839;28;20091;-68
2022/02/14 16:30:28;;;;;;;65.78;40.55;;;333.10;2124.80;;;;;;5033755;28;20032;-68
2022/02/14 16:32:54;;;;;;;102.40;56.47;;;333.10;2124.80;;;;;;5033500;28;20472;-67
2022/02/14 16:35:21;;;;;;;43.47;27.17;;;333.00;2124.80;;;;;;5033729;28;20033;-69
2022/02/14 16:37:48;;;;;;;91.10;53.63;;;;;;;;;;5033346;28;20036;-69
2022/02/14 16:40:16;;;;;;;51.33;34.85;;;;;;;;;;5033179;28;20083;-67
2022/02/14 16:42:43;;;;;;;81.85;48.42;;;;;;;;;;5033145;28;20029;-69
2022/02/14 16:45:10;;;;;;;55.60;33.35;;;333.10;2099.20;;;;;;5033477;28;20108;-67
2022/02/14 16:47:35;;;;;;;43.95;31.50;;;333.00;2099.20;;;;;;5033108;28;20041;-69
2022/02/14 16:50:03;;;;;;;42.38;30.30;;;333.10;2124.80;;;;;;5033042;28;20036;-68
2022/02/14 16:52:31;;;;;;;46.55;29.25;;;333.10;2099.20;;;;;;5033386;28;20048;-68
2022/02/14 16:54:58;;;;;;;62.58;43.78;;;333.20;2124.80;;;;;;5032864;28;20034;-69
2022/02/14 16:57:27;;;;;;;38.92;26.88;;;333.20;2201.60;;;;;;5031796;28;20100;-69
2022/02/14 16:59:53;;;;;;;67.10;44.33;;;333.20;2124.80;;;;;;5032923;28;20037;-70
2022/02/14 17:02:20;;;;;;;48.88;33.40;;;333.30;2124.80;;;;;;5033019;28;20106;-69
2022/02/14 17:04:47;;;;;;;54.70;39.25;;;333.30;2099.20;;;;;;5032982;28;20036;-70
2022/02/14 17:07:13;;;;;;;68.93;47.72;;;333.20;2201.60;;;;;;5032819;28;20113;-70
2022/02/14 17:09:39;;;;;;;71.28;48.95;;;333.20;2278.40;;;;;;5032673;28;20029;-70
2022/02/14 17:12:06;;;;;;;96.38;64.30;;;333.40;2252.80;;;;;;5032800;28;20072;-69
2022/02/14 17:14:32;;;;;;;87.30;60.22;;;333.30;2304.00;;;;;;5033004;28;20113;-70
2022/02/14 17:16:58;;;;;;;131.63;86.75;;;333.20;2329.60;;;;;;5032759;28;20053;-70
2022/02/14 17:19:23;;;;;;;126.47;86.10;;;333.20;2329.60;;;;;;5032828;28;20017;-71
2022/02/14 17:21:49;;;;;;;134.55;93.20;;;333.30;2304.00;;;;;;5032258;28;20411;-70
2022/02/14 17:24:16;;;;;;;135.27;94.95;;;333.30;2329.60;;;;;;5028217;28;20029;-70
2022/02/14 17:26:42;;;;;;;166.25;108.80;;;333.20;2329.60;;;;;;5013062;28;20033;-70
2022/02/14 17:29:09;;;;;;;163.63;111.32;;;333.20;2329.60;;;;;;5012819;28;20080;-69
2022/02/14 17:31:35;;;;;;;153.30;105.43;;;333.20;2329.60;;;;;;5012842;28;20052;-68
2022/02/14 17:34:03;;;;;;;155.75;107.88;;;333.10;2329.60;;;;;;5012835;28;20057;-70
2022/02/14 17:36:30;;;;;;;245.15;141.65;;;333.30;2304.00;;;;;;5012661;28;20021;-70
2022/02/14 17:38:57;;;;;;;129.85;89.75;;;333.30;2278.40;;;;;;5012737;28;20063;-71
2022/02/14 17:41:23;;;;;;;151.80;99.40;;;;;;;;;;5012782;28;20046;-70
2022/02/14 17:43:50;;;;;;;186.57;122.97;;;333.40;2329.60;;;;;;5012706;28;20030;-70
2022/02/14 17:46:16;;;;;;;149.13;100.30;;;333.20;2252.80;;;;;;5012709;28;20058;-70
2022/02/14 17:48:42;;;;;;;92.85;61.63;;;333.20;2252.80;;;;;;5013014;28;20107;-69
2022/02/14 17:51:08;;;;;;;60.50;40.33;;;333.20;2150.40;;;;;;5012634;28;20041;-70
2022/02/14 17:53:34;;;;;;;48.55;31.17;;;333.10;2124.80;;;;;;5012474;28;20037;-68
2022/02/14 17:56:00;;;;;;;40.25;26.30;;;;;;;;;;5032514;28;20359;-70
2022/02/14 17:58:26;;;;;;;43.75;26.23;;;;;;;;;;5032406;28;20039;-69
2022/02/14 18:00:54;;;;;;;59.90;36.40;;;;;;;;;;5032178;28;20029;-69
2022/02/14 18:03:21;;;;;;;85.47;54.85;;;;;;;;;;5032394;28;20398;-70
2022/02/14 18:05:48;;;;;;;149.73;103.93;;;;;;;;;;5032055;28;20091;-67
2022/02/14 18:08:14;;;;;;;176.63;123.35;;;;;;;;;;5033728;28;20033;-66
2022/02/14 18:10:40;;;;;;;207.82;146.80;;;;;;;;;;5036148;28;20051;-68
2022/02/14 18:13:07;;;;;;;226.70;158.05;;;;;;;;;;5035790;28;20061;-67
2022/02/14 18:15:34;;;;;;;248.45;177.75;;;;;;;;;;5035837;28;20014;-67
2022/02/14 18:18:00;;;;;;;222.45;162.30;;;;;;;;;;5035867;28;20395;-68
2022/02/14 18:20:28;;;;;;;212.38;146.93;;;;;;;;;;5035783;28;20086;-64
2022/02/14 18:22:55;;;;;;;196.02;138.18;;;;;;;;;;5035572;28;20515;-69
2022/02/14 18:25:21;;;;;;;195.15;135.75;;;;;;;;;;5035360;28;20040;-68
2022/02/14 18:27:47;;;;;;;232.30;169.68;;;;;;;;;;5035639;28;20053;-67
2022/02/14 18:30:14;;;;;;;214.40;155.80;;;;;;;;;;5035907;28;20056;-68
2022/02/14 18:32:40;;;;;;;245.60;170.98;;;;;;;;;;5035541;28;20024;-69
2022/02/14 18:35:07;;;;;;;380.40;234.65;;;;;;;;;;5035541;28;20022;-67
2022/02/14 18:37:34;;;;;;;227.70;148.93;;;;;;;;;;5034070;28;20018;-67
2022/02/14 18:40:00;;;;;;;276.92;171.18;;;;;;;;;;5033910;28;20031;-67
2022/02/14 18:42:26;;;;;;;185.07;124.25;;;;;;;;;;5035308;28;20034;-68
2022/02/14 18:44:52;;;;;;;174.65;119.32;;;;;;;;;;5035358;28;20018;-68
2022/02/14 18:47:19;;;;;;;268.52;173.40;;;;;;;;;;5035322;28;20029;-67
2022/02/14 18:49:45;;;;;;;156.15;108.65;;;;;;;;;;5021485;28;20030;-68
2022/02/14 18:52:11;;;;;;;320.92;212.38;;;;;;;;;;5019287;28;20034;-68
2022/02/14 18:54:41;;;;;;;165.05;115.80;;;;;;;;;;5034931;28;20028;-64
2022/02/14 18:57:07;;;;;;;94.18;63.45;;;;;;;;;;5018409;28;20034;-69
2022/02/14 18:59:33;;;;;;;80.80;50.90;;;;;;;;;;5015425;28;20528;-68
2022/02/14 19:02:03;;;;;;;82.18;52.75;;;;;;;;;;5015223;28;20042;-68
2022/02/14 19:04:32;;;;;;;61.13;41.60;;;;;;;;;;5015239;28;20033;-70
2022/02/14 19:06:58;;;;;;;43.38;33.28;;;;;;;;;;5015281;28;20021;-69
2022/02/14 19:09:25;;;;;;;43.45;31.88;;;;;;;;;;5016220;28;20106;-70
2022/02/14 19:11:52;;;;;;;53.90;36.90;;;;;;;;;;5013967;28;20475;-70
2022/02/14 19:14:19;;;;;;;44.20;32.35;;;;;;;;;;5015319;28;20026;-67
2022/02/14 19:16:45;;;;;;;44.03;30.98;;;;;;;;;;5015173;28;20026;-68
2022/02/14 19:19:12;;;;;;;49.08;32.60;;;;;;;;;;5015213;28;20441;-69
2022/02/14 19:21:38;;;;;;;212.13;108.72;;;;;;;;;;5014471;28;20048;-69
2022/02/14 19:24:04;;;;;;;66.38;39.67;;;;;;;;;;5013815;28;20373;-67
2022/02/14 19:26:30;;;;;;;71.78;45.97;;;;;;;;;;5015024;28;20023;-68
2022/02/14 19:28:57;;;;;;;101.82;64.60;;;;;;;;;;5015049;28;20087;-71
2022/02/14 19:31:24;;;;;;;70.78;46.45;;;;;;;;;;5015011;28;20124;-68
2022/02/14 19:33:53;;;;;;;205.77;139.90;;;;;;;;;;4968340;28;20113;-67
2022/02/14 19:36:21;;;;;;;445.42;329.55;;;;;;;;;;5026113;28;20049;-69
2022/02/14 19:38:49;;;;;;;321.08;265.88;;;;;;;;;;5014942;28;20034;-69
2022/02/14 19:41:15;;;;;;;160.63;124.30;;;;;;;;;;5013442;28;20045;-68
2022/02/14 19:43:41;;;;;;;128.68;93.82;;;;;;;;;;5020509;28;20025;-70
2022/02/14 19:46:07;;;;;;;117.00;81.95;;;;;;;;;;5034441;28;20040;-70
2022/02/14 19:48:35;;;;;;;123.28;87.25;;;;;;;;;;5034414;28;20036;-66
2022/02/14 19:51:02;;;;;;;123.93;82.22;;;;;;;;;;5035286;28;20032;-64
2022/02/14 19:53:29;;;;;;;108.78;79.88;;;;;;;;;;5033693;28;20030;-72
2022/02/14 19:55:55;;;;;;;132.70;91.15;;;;;;;;;;5034053;28;20053;-70
2022/02/14 19:58:21;;;;;;;137.90;99.78;;;;;;;;;;5033794;28;20021;-67
2022/02/14 20:00:49;;;;;;;163.88;109.85;;;332.80;2329.60;;;;;;5034169;28;20024;-69
2022/02/14 20:03:15;;;;;;;94.28;64.22;;;332.80;2304.00;;;;;;5034326;28;20033;-70
2022/02/14 20:05:41;;;;;;;63.15;43.17;;;;;;;;;;5033849;28;20375;-67
2022/02/14 20:08:07;;;;;;;41.97;30.40;;;;;;;;;;5034205;28;20104;-67
2022/02/14 20:10:33;;;;;;;77.40;53.50;;;;;;;;;;5032661;28;20037;-71
2022/02/14 20:12:59;;;;;;;69.00;48.83;;;;;;;;;;5032421;28;20044;-65
2022/02/14 20:15:25;;;;;;;82.05;55.97;;;;;;;;;;5033894;28;20029;-66
2022/02/14 20:17:52;;;;;;;81.88;54.20;;;;;;;;;;5033529;28;20017;-67
2022/02/14 20:20:21;;;;;;;74.13;50.00;;;;;;;;;;5031837;28;20075;-69
2022/02/14 20:22:47;;;;;;;88.47;57.72;;;;;;;;;;5029170;28;20569;-70
2022/02/14 20:25:14;;;;;;;72.85;50.05;;;;;;;;;;5033284;28;20036;-69
2022/02/14 20:27:40;;;;;;;70.93;50.95;;;;;;;;;;5033400;28;20474;-69
2022/02/14 20:30:08;;;;;;;67.90;48.78;;;;;;;;;;5033102;28;20052;-68
2022/02/14 20:32:34;;;;;;;85.45;58.47;;;;;;;;;;5033931;28;20040;-69
2022/02/14 20:35:00;;;;;;;174.05;101.70;;;;;;;;;;5035000;28;20026;-69
2022/02/14 20:37:26;;;;;;;187.82;121.07;;;;;;;;;;5036766;28;20364;-69
2022/02/14 20:39:56;;;;;;;219.25;149.73;;;;;;;;;;5035274;28;20374;-69
2022/02/14 20:42:23;;;;;;;213.73;144.80;;;;;;;;;;5033708;28;20026;-69
2022/02/14 20:44:49;;;;;;;218.95;146.23;;;;;;;;;;5037037;28;20017;-69
2022/02/14 20:47:15;;;;;;;218.98;153.82;;;;;;;;;;5039274;28;20530;-69
2022/02/14 20:49:41;;;;;;;225.90;160.07;;;;;;;;;;5034675;28;20386;-68
2022/02/14 20:52:08;;;;;;;244.48;174.40;;;;;;;;;;5037870;28;20033;-69
2022/02/14 20:54:34;;;;;;;265.58;189.90;;;;;;;;;;5040278;28;20079;-69
2022/02/14 20:57:02;;;;;;;217.13;154.77;;;;;;;;;;5037921;28;20094;-65
2022/02/14 20:59:29;;;;;;;206.45;149.98;;;;;;;;;;5043748;28;20026;-71
2022/02/14 21:01:55;;;;;;;212.45;144.70;;;;;;;;;;5034526;28;20502;-68
2022/02/14 21:04:25;;;;;;;191.80;132.35;;;;;;;;;;5033199;28;20017;-69
2022/02/14 21:06:51;;;;;;;179.07;128.52;;;;;;;;;;5032910;28;20017;-70
2022/02/14 21:09:17;;;;;;;175.05;129.23;;;282.00;2278.40;;;;;;5033018;28;20423;-70
2022/02/14 21:11:43;;;;;;;168.52;124.90;;;281.90;2278.40;;;;;;5019828;28;20036;-71
2022/02/14 21:14:09;;;;;;;164.00;113.70;;;;;;;;;;5031678;28;20025;-73
2022/02/14 21:16:36;;;;;;;146.15;101.63;;;;;;;;;;5032940;28;20032;-72
2022/02/14 21:19:03;;;;;;;142.88;100.20;;;;;;;;;;5032859;28;20096;-71
2022/02/14 21:21:30;;;;;;;151.30;107.63;;;;;;;;;;5032137;28;20479;-72
2022/02/14 21:23:56;;;;;;;174.02;116.90;;;;;;;;;;5030844;28;20055;-67
2022/02/14 21:26:23;;;;;;;164.48;112.65;;;;;;;;;;5014679;28;20480;-69
2022/02/14 21:28:49;;;;;;;164.95;108.10;;;;;;;;;;5014585;28;20237;-69
2022/02/14 21:31:15;;;;;;;187.27;125.00;;;;;;;;;;5012048;28;20030;-71
2022/02/14 21:33:42;;;;;;;177.40;119.20;;;;;;;;;;5013002;28;20083;-70
2022/02/14 21:36:09;;;;;;;177.52;115.15;;;;;;;;;;5012893;28;20372;-68
2022/02/14 21:38:36;;;;;;;164.32;110.93;;;;;;;;;;5012941;28;20101;-68
2022/02/14 21:41:03;;;;;;;187.13;121.22;;;;;;;;;;5012694;28;20109;-68
2022/02/14 21:43:29;;;;;;;235.30;148.02;;;;;;;;;;5014768;28;20041;-67
2022/02/14 21:45:55;;;;;;;213.02;135.63;;;;;;;;;;5016705;28;20033;-68
2022/02/14 21:48:22;;;;;;;202.55;136.02;;;;;;;;;;5027745;28;20021;-68
2022/02/14 21:50:48;;;;;;;210.60;145.05;;;;;;;;;;5017392;28;20034;-69
2022/02/14 21:53:16;;;;;;;224.00;152.02;;;;;;;;;;5016467;28;20022;-69
2022/02/14 21:55:42;;;;;;;244.38;165.82;;;;;;;;;;5032218;28;20032;-69
2022/02/14 21:58:08;;;;;;;260.13;174.00;;;;;;;;;;5036333;28;20027;-68
2022/02/14 22:00:37;;;;;;;283.10;183.65;;;;;;;;;;5036341;28;20093;-68
2022/02/14 22:03:04;;;;;;;377.27;224.48;;;;;;;;;;5036323;28;20041;-70
2022/02/14 22:08:15;;;;;;;312.98;202.93;;;;;;;;;;5024521;28;20068;-70
2022/02/14 22:10:41;;;;;;;288.33;189.32;;;;;;;;;;5016630;28;20018;-70
2022/02/14 22:13:06;;;;;;;230.90;153.68;;;256.50;2252.80;;;;;;5015534;28;20038;-67
2022/02/14 22:15:33;;;;;;;202.35;137.40;;;;;;;;;;5016297;28;20037;-69
2022/02/14 22:18:00;;;;;;;242.27;157.80;;;;;;;;;;5015979;28;20026;-67
2022/02/14 22:20:26;;;;;;;260.92;170.25;;;;;;;;;;5016026;28;20514;-70
2022/02/14 22:22:53;;;;;;;223.23;141.82;;;;;;;;;;5015775;28;20042;-69
2022/02/14 22:25:19;;;;;;;211.38;132.88;;;231.30;2252.80;;;;;;5028495;28;20117;-68
2022/02/14 22:27:45;;;;;;;220.95;139.82;;;231.30;2252.80;;;;;;5035717;28;20026;-67
2022/02/14 22:30:11;;;;;;;284.73;161.27;;;;;;;;;;5035955;28;20475;-68
2022/02/14 22:32:37;;;;;;;260.25;157.95;;;;;;;;;;5035922;28;20387;-66
2022/02/14 22:35:03;;;;;;;227.27;136.63;;;;;;;;;;5035516;28;20021;-67
2022/02/14 22:37:30;;;;;;;181.70;108.88;;;;;;;;;;5035512;28;20038;-66
2022/02/14 22:39:55;;;;;;;192.73;116.97;;;231.30;2252.80;;;;;;5035677;28;20349;-68
2022/02/14 22:42:22;;;;;;;122.32;85.13;;;256.00;2252.80;;;;;;5035255;28;20040;-67
2022/02/14 22:44:48;;;;;;;124.32;73.90;;;231.20;2252.80;;;;;;5035611;28;20045;-68
2022/02/14 22:47:14;;;;;;;157.57;100.75;;;231.30;2252.80;;;;;;5035379;28;20108;-68
2022/02/14 22:49:40;;;;;;;161.40;110.47;;;231.30;2252.80;;;;;;5035308;28;20084;-68
2022/02/14 22:52:06;;;;;;;284.02;174.02;;;231.20;2252.80;;;;;;5034897;28;20036;-67
2022/02/14 22:54:33;;;;;;;314.88;213.15;;;;;;;;;;5034825;28;20385;-68
2022/02/14 22:56:59;;;;;;;226.88;148.50;;;;;;;;;;5035242;28;20037;-67
2022/02/14 22:59:25;;;;;;;232.38;156.63;;;;;;;;;;5035489;28;20017;-68
2022/02/14 23:04:36;;;;;;;229.40;149.75;;;;;;;;;;5035109;28;20068;-67
2022/02/14 23:15:14;;;;;;;212.95;133.32;;;256.00;2252.80;;;;;;5035122;28;20079;-69
2022/02/14 23:17:40;;;;;;;247.65;150.48;;;;;;;;;;5035021;28;20029;-69
2022/02/14 23:20:08;;;;;;;269.30;155.75;;;;;;;;;;5034628;28;20071;-68
2022/02/14 23:22:34;;;;;;;266.85;156.07;;;;;;;;;;5034238;28;20121;-69
2022/02/14 23:25:00;;;;;;;245.00;147.60;;;256.10;2252.80;;;;;;5034426;28;20510;-66
2022/02/14 23:27:26;;;;;;;244.48;142.07;;;256.20;2252.80;;;;;;5034718;28;20057;-69
2022/02/14 23:29:52;;;;;;;225.93;142.65;;;;;;;;;;5034356;28;20148;-71
2022/02/14 23:32:18;;;;;;;257.30;154.32;;;231.30;2252.80;;;;;;5034439;28;20030;-68
2022/02/14 23:34:44;;;;;;;238.85;151.10;;;;;;;;;;5034372;28;20431;-66
2022/02/14 23:37:13;;;;;;;227.57;147.25;;;231.30;2252.80;;;;;;5034665;28;20489;-68
2022/02/14 23:39:42;;;;;;;189.25;123.03;;;231.30;2252.80;;;;;;5034695;28;20037;-71
2022/02/14 23:42:09;;;;;;;167.70;113.20;;;231.30;2252.80;;;;;;5034253;28;20116;-70
2022/02/14 23:44:35;;;;;;;162.65;108.03;;;;;;;;;;5034237;28;20044;-70
2022/02/14 23:47:01;;;;;;;156.00;107.13;;;;;;;;;;5034210;28;20495;-68
2022/02/14 23:49:27;;;;;;;161.85;107.57;;;231.20;2252.80;;;;;;5034323;28;20476;-69
2022/02/14 23:51:53;;;;;;;151.75;102.43;;;231.20;2252.80;;;;;;5033772;28;20036;-70
2022/02/14 23:54:18;;;;;;;147.50;98.53;;;231.30;2252.80;;;;;;5034062;28;20021;-71
2022/02/14 23:56:44;;;;;;;156.15;103.88;;;231.30;2252.80;;;;;;5034029;28;20052;-71
2022/02/14 23:59:10;;;;;;;148.30;99.18;;;;;;;;;;5033907;28;20494;-71
